Time;durP1;ratioP1;P1;durP2;ratioP2;P2;SDS_P1;SDS_P2;PMS_P1;PMS_P2;Temp;Humidity;BMP_temperature;BMP_pressure;BME280_temperature;BME280_humidity;BME280_pressure;Samples;Min_cycle;Max_cycle;Signal;HPM_P1;HPM_P2
2023/06/12 00:00:37;;;;;;;5.97;5.00;;;;;;;10.88;100.00;92876.53;2584193;23;20754;-82
2023/06/12 00:01:41;;;;;;;5.45;4.95;;;;;;;10.83;100.00;92877.78;2573612;23;20381;-81
2023/06/12 00:02:45;;;;;;;5.65;5.10;;;;;;;10.81;100.00;92880.91;2561705;23;20019;-81
2023/06/12 00:03:51;;;;;;;6.30;4.90;;;;;;;10.87;100.00;92883.81;2561819;23;20667;-79
2023/06/12 00:05:00;;;;;;;4.93;4.53;;;;;;;11.00;100.00;92876.56;2561959;23;20005;-80
2023/06/12 00:06:10;;;;;;;5.53;5.03;;;;;;;10.83;100.00;92881.22;2562751;23;20091;-82
2023/06/12 00:07:21;;;;;;;6.72;5.15;;;;;;;10.80;100.00;92884.00;2572655;23;20094;-81
2023/06/12 00:08:29;;;;;;;5.78;5.20;;;;;;;10.74;100.00;92888.34;2563770;23;20005;-80
2023/06/12 00:09:37;;;;;;;5.15;4.72;;;;;;;10.70;100.00;92879.66;2562599;23;20008;-80
2023/06/12 00:10:47;;;;;;;4.88;4.47;;;;;;;10.71;100.00;92881.94;2561322;23;20091;-80
2023/06/12 00:11:57;;;;;;;5.38;4.88;;;;;;;10.79;100.00;92887.84;2573087;23;20028;-83
2023/06/12 00:13:05;;;;;;;5.95;5.10;;;;;;;10.72;100.00;92880.03;2562946;23;20025;-81
2023/06/12 00:14:12;;;;;;;5.63;5.05;;;;;;;10.69;100.00;92878.19;2560973;23;20005;-81
2023/06/12 00:15:20;;;;;;;5.30;4.80;;;;;;;10.73;100.00;92887.59;2573355;22;20004;-81
2023/06/12 00:16:28;;;;;;;5.00;4.60;;;;;;;10.75;100.00;92884.50;2572478;23;20004;-79
2023/06/12 00:17:36;;;;;;;5.45;4.95;;;;;;;10.72;100.00;92883.44;2586595;22;20001;-82
2023/06/12 00:18:44;;;;;;;5.57;4.47;;;;;;;10.68;100.00;92887.38;2583655;23;20035;-80
2023/06/12 00:19:51;;;;;;;5.20;4.80;;;;;;;10.78;100.00;92881.00;2587400;22;20007;-79
2023/06/12 00:20:56;;;;;;;5.82;5.13;;;;;;;10.71;100.00;92883.84;2583930;23;20358;-81
2023/06/12 00:22:01;;;;;;;5.18;4.68;;;;;;;10.63;100.00;92883.28;2561090;23;20771;-82
2023/06/12 00:23:12;;;;;;;5.57;5.07;;;;;;;10.71;100.00;92878.50;2562612;23;20016;-80
2023/06/12 00:24:20;;;;;;;6.15;5.10;;;;;;;10.63;100.00;92885.22;2576609;22;20014;-81
2023/06/12 00:25:35;;;;;;;5.50;5.00;;;;;;;10.63;100.00;92887.91;2585787;22;20014;-79
2023/06/12 00:26:43;;;;;;;5.75;5.25;;;;;;;10.59;100.00;92882.63;2586546;22;20004;-82
2023/06/12 00:27:51;;;;;;;5.78;5.28;;;;;;;10.63;100.00;92880.63;2573149;23;20008;-80
2023/06/12 00:29:04;;;;;;;5.57;5.03;;;;;;;10.57;100.00;92887.63;2563390;23;20481;-80
2023/06/12 00:30:14;;;;;;;7.43;5.35;;;;;;;10.58;100.00;92878.47;2575517;22;20005;-80
2023/06/12 00:31:23;;;;;;;5.57;5.07;;;;;;;10.53;100.00;92876.28;2583427;23;20611;-80
2023/06/12 00:32:31;;;;;;;6.22;5.10;;;;;;;10.48;100.00;92879.47;2572433;23;20063;-80
2023/06/12 00:33:39;;;;;;;5.38;4.97;;;;;;;10.45;100.00;92880.31;2574684;22;20087;-82
2023/06/12 00:34:43;;;;;;;7.10;5.72;;;;;;;10.45;100.00;92881.06;2584022;23;20000;-82
2023/06/12 00:35:49;;;;;;;6.13;5.53;;;;;;;10.37;100.00;92881.66;2572298;23;20558;-81
2023/06/12 00:36:58;;;;;;;9.80;5.25;;;;;;;10.38;100.00;92878.56;2586418;22;20000;-80
2023/06/12 00:38:06;;;;;;;7.03;5.43;;;;;;;10.39;100.00;92877.41;2582901;23;20028;-81
2023/06/12 00:39:15;;;;;;;5.88;4.90;;;;;;;10.37;100.00;92873.66;2561928;23;20025;-80
2023/06/12 00:40:19;;;;;;;6.07;5.53;;;;;;;10.41;100.00;92871.66;2574751;22;20016;-81
2023/06/12 00:41:27;;;;;;;6.03;5.45;;;;;;;10.43;100.00;92875.38;2571691;23;20000;-81
2023/06/12 00:42:46;;;;;;;6.00;5.43;;;;;;;10.47;100.00;92875.31;2575411;22;20008;-80
2023/06/12 00:43:53;;;;;;;5.63;5.03;;;;;;;10.41;100.00;92880.41;2576148;23;20455;-82
2023/06/12 00:44:59;;;;;;;6.05;5.50;;;;;;;10.31;100.00;92871.47;2562533;23;20010;-81
2023/06/12 00:46:05;;;;;;;6.47;5.50;;;;;;;10.36;100.00;92864.91;2574536;22;20000;-80
2023/06/12 00:47:09;;;;;;;7.93;5.78;;;;;;;10.25;100.00;92872.41;2585174;22;20033;-83
2023/06/12 00:48:15;;;;;;;6.10;5.50;;;;;;;10.23;100.00;92872.81;2584762;22;20000;-82
2023/06/12 00:49:24;;;;;;;5.90;5.30;;;;;;;10.24;100.00;92866.31;2572788;23;20031;-82
2023/06/12 00:50:34;;;;;;;6.25;5.68;;;;;;;10.29;100.00;92868.47;2574700;22;20000;-83
2023/06/12 00:51:43;;;;;;;5.90;5.30;;;;;;;10.28;100.00;92864.31;2572988;23;20000;-83
2023/06/12 00:52:50;;;;;;;8.60;5.80;;;;;;;10.31;100.00;92870.72;2572847;23;20463;-80
2023/06/12 00:53:57;;;;;;;5.75;5.20;;;;;;;10.26;100.00;92868.56;2572909;23;20028;-80
2023/06/12 00:55:07;;;;;;;7.50;5.50;;;;;;;10.20;100.00;92870.97;2561636;23;20080;-79
2023/06/12 00:56:18;;;;;;;9.20;5.63;;;;;;;10.20;100.00;92868.28;2574681;22;20009;-82
2023/06/12 00:57:22;;;;;;;;;;;;;;;10.16;100.00;92866.88;2573331;23;20016;-83
2023/06/12 00:58:32;;;;;;;6.30;5.30;;;;;;;10.15;100.00;92862.72;2572158;22;19911;-82
2023/06/12 00:59:42;;;;;;;5.78;5.28;;;;;;;10.15;100.00;92863.47;2585447;22;20004;-80
2023/06/12 01:00:50;;;;;;;6.78;5.63;;;;;;;10.17;100.00;92860.38;2584880;22;20404;-82
2023/06/12 01:01:57;;;;;;;11.95;6.45;;;;;;;10.18;100.00;92867.94;2596995;22;20004;-84
2023/06/12 01:03:10;;;;;;;6.25;5.70;;;;;;;10.12;100.00;92858.19;2609516;22;20383;-82
2023/06/12 01:04:19;;;;;;;7.03;5.78;;;;;;;10.16;100.00;92861.53;2583348;23;20086;-81
2023/06/12 01:05:34;;;;;;;8.07;5.45;;;;;;;10.11;100.00;92862.78;2561885;23;20092;-80
2023/06/12 01:07:08;;;;;;;7.00;5.45;;;;;;;10.10;100.00;92866.63;2577118;22;20016;-81
2023/06/12 01:08:21;;;;;;;7.43;5.85;;;;;;;10.08;100.00;92864.38;2578831;23;20004;-81
2023/06/12 01:09:30;;;;;;;6.05;5.55;;;;;;;10.00;100.00;92862.28;2573932;23;20009;-82
2023/06/12 01:10:56;;;;;;;7.20;6.50;;;;;;;10.11;100.00;92862.06;2575025;22;20015;-81
2023/06/12 01:12:03;;;;;;;7.63;5.47;;;;;;;10.04;100.00;92866.38;2589183;22;20023;-83
2023/06/12 01:13:05;;;;;;;6.22;5.63;;;;;;;10.03;100.00;92872.88;2571086;23;20015;-82
2023/06/12 01:14:10;;;;;;;7.90;6.00;;;;;;;10.00;100.00;92864.97;2572203;22;20012;-82
2023/06/12 01:15:16;;;;;;;7.82;5.65;;;;;;;9.93;100.00;92865.88;2585110;22;20037;-80
2023/06/12 01:16:23;;;;;;;6.93;6.22;;;;;;;9.84;100.00;92865.72;2585159;22;20000;-79
2023/06/12 01:17:29;;;;;;;6.22;5.63;;;;;;;9.87;100.00;92856.84;2585084;22;20012;-80
2023/06/12 01:18:37;;;;;;;6.40;5.75;;;;;;;9.90;100.00;92863.28;2572403;23;20031;-80
2023/06/12 01:19:45;;;;;;;6.72;6.07;;;;;;;9.78;100.00;92864.69;2561903;23;20069;-81
2023/06/12 01:20:55;;;;;;;6.78;6.07;;;;;;;9.80;100.00;92865.81;2585208;22;20004;-83
2023/06/12 01:22:04;;;;;;;6.03;5.43;;;;;;;9.82;100.00;92863.44;2596670;22;20003;-81
2023/06/12 01:23:15;;;;;;;6.68;6.07;;;;;;;9.80;100.00;92857.03;2595915;22;20007;-83
2023/06/12 01:24:48;;;;;;;7.68;6.20;;;;;;;9.75;100.00;92873.56;2596008;22;20338;-82
2023/06/12 01:26:34;;;;;;;8.88;5.82;;;;;;;9.83;100.00;92864.97;2596746;22;20009;-82
2023/06/12 01:28:16;;;;;;;7.07;6.05;;;;;;;9.83;100.00;92872.22;2548512;22;20072;-81
2023/06/12 01:29:48;;;;;;;6.55;5.85;;;;;;;9.82;100.00;92870.72;2529196;23;20006;-82
2023/06/12 01:31:20;;;;;;;6.65;6.05;;;;;;;9.79;100.00;92874.22;2533462;23;20021;-82
2023/06/12 01:32:24;;;;;;;6.38;5.80;;;;;;;9.80;100.00;92870.38;2590619;22;20046;-81
2023/06/12 01:33:36;;;;;;;6.78;6.13;;;;;;;9.74;100.00;92869.38;2584611;22;20012;-84
2023/06/12 01:35:02;;;;;;;7.35;6.28;;;;;;;9.72;100.00;92874.38;2573773;23;20008;-80
2023/06/12 01:36:20;;;;;;;6.93;6.20;;;;;;;9.75;100.00;92862.88;2567343;23;20418;-81
2023/06/12 01:37:33;;;;;;;7.30;6.28;;;;;;;9.70;100.00;92866.81;2576925;22;20004;-80
2023/06/12 01:38:35;;;;;;;7.82;6.80;;;;;;;9.67;100.00;92862.28;2573153;23;20025;-81
2023/06/12 01:39:41;;;;;;;8.75;6.85;;;;;;;9.61;100.00;92857.84;2572144;22;20320;-81
2023/06/12 01:40:44;;;;;;;7.05;6.35;;;;;;;9.59;100.00;92863.59;2571958;23;20466;-79
2023/06/12 01:41:47;;;;;;;7.10;6.22;;;;;;;9.55;100.00;92865.59;2559770;23;20092;-81
2023/06/12 01:42:49;;;;;;;8.20;6.47;;;;;;;9.54;100.00;92861.44;2571285;22;20011;-80
2023/06/12 01:43:49;;;;;;;7.10;6.50;;;;;;;9.71;100.00;92865.63;2570610;23;20011;-83
2023/06/12 01:44:50;;;;;;;7.60;6.70;;;;;;;9.55;100.00;92866.34;2557930;23;20004;-81
2023/06/12 01:45:51;;;;;;;6.93;6.22;;;;;;;9.53;100.00;92858.03;2570334;23;20007;-79
2023/06/12 01:46:52;;;;;;;6.93;6.25;;;;;;;9.54;100.00;92864.84;2582931;22;20011;-80
2023/06/12 01:47:53;;;;;;;7.20;6.50;;;;;;;9.51;100.00;92865.66;2582702;22;20450;-81
2023/06/12 01:48:54;;;;;;;7.93;6.53;;;;;;;9.57;100.00;92863.28;2595046;22;20006;-79
2023/06/12 01:49:56;;;;;;;8.68;6.80;;;;;;;9.51;100.00;92863.00;2582617;22;20481;-80
2023/06/12 01:50:57;;;;;;;11.13;6.90;;;;;;;9.56;100.00;92861.75;2581762;23;20438;-81
2023/06/12 01:51:58;;;;;;;7.63;6.85;;;;;;;9.50;100.00;92858.84;2570050;23;19997;-81
2023/06/12 01:53:03;;;;;;;7.40;6.70;;;;;;;9.65;100.00;92864.59;2583051;22;20582;-80
2023/06/12 01:54:04;;;;;;;7.65;6.90;;;;;;;9.68;100.00;92857.69;2594180;22;20004;-82
2023/06/12 01:55:05;;;;;;;7.47;6.78;;;;;;;9.65;100.00;92853.94;2581727;23;20031;-82
2023/06/12 01:56:07;;;;;;;9.05;7.55;;;;;;;9.48;100.00;92850.50;2569462;23;20036;-80
2023/06/12 01:57:11;;;;;;;7.72;6.93;;;;;;;9.43;100.00;92858.97;2570372;22;20028;-83
2023/06/12 01:58:13;;;;;;;8.63;6.47;;;;;;;9.40;100.00;92854.50;2570399;23;20063;-80
2023/06/12 01:59:15;;;;;;;6.70;6.10;;;;;;;9.36;100.00;92856.47;2582810;22;20480;-80
2023/06/12 02:00:25;;;;;;;7.65;6.90;;;;;;;9.40;100.00;92851.06;2607034;22;19999;-82
2023/06/12 02:01:29;;;;;;;9.57;7.00;;;;;;;9.42;100.00;92851.41;2594685;22;20023;-81
2023/06/12 02:02:32;;;;;;;8.90;6.93;;;;;;;9.41;100.00;92855.25;2570443;23;20427;-79
2023/06/12 02:03:36;;;;;;;9.05;7.15;;;;;;;9.34;100.00;92861.47;2570654;22;20005;-80
2023/06/12 02:04:38;;;;;;;8.18;7.38;;;;;;;9.23;100.00;92853.69;2582513;22;20007;-81
2023/06/12 02:05:39;;;;;;;8.00;6.80;;;;;;;9.55;100.00;92853.00;2581930;23;20704;-80
2023/06/12 02:06:41;;;;;;;10.27;7.47;;;;;;;9.29;100.00;92859.28;2569597;22;20000;-81
2023/06/12 02:07:42;;;;;;;7.30;6.60;;;;;;;9.27;100.00;92854.38;2594202;22;20007;-80
2023/06/12 02:08:45;;;;;;;8.10;7.18;;;;;;;9.31;100.00;92856.97;2595057;22;20015;-80
2023/06/12 02:09:46;;;;;;;7.35;6.65;;;;;;;9.26;100.00;92852.09;2582396;22;20039;-79
2023/06/12 02:10:47;;;;;;;7.57;6.88;;;;;;;9.23;100.00;92856.38;2569982;23;20725;-79
2023/06/12 02:11:54;;;;;;;9.55;7.70;;;;;;;9.10;100.00;92860.84;2569164;23;20004;-81
2023/06/12 02:12:56;;;;;;;8.32;7.20;;;;;;;9.16;100.00;92853.84;2583404;22;20853;-81
2023/06/12 02:13:57;;;;;;;7.72;7.03;;;;;;;9.19;100.00;92853.03;2569984;23;20000;-81
2023/06/12 02:14:59;;;;;;;8.38;7.40;;;;;;;9.21;100.00;92855.28;2582558;22;20004;-82
2023/06/12 02:16:03;;;;;;;7.80;7.10;;;;;;;9.10;100.00;92858.16;2582146;23;20000;-80
2023/06/12 02:17:04;;;;;;;11.75;7.35;;;;;;;9.10;100.00;92852.09;2582704;22;20014;-81
2023/06/12 02:18:06;;;;;;;9.73;7.28;;;;;;;9.11;100.00;92858.91;2595046;22;20003;-81
2023/06/12 02:19:08;;;;;;;8.55;7.50;;;;;;;9.25;100.00;92858.63;2595812;22;20498;-81
2023/06/12 02:21:31;;;;;;;;;;;;;;;9.06;100.00;92857.47;2143306;27;20534;-71
2023/06/12 02:22:35;;;;;;;8.57;7.20;;;;;;;9.23;100.00;92855.63;2126654;27;20331;-74
2023/06/12 02:23:40;;;;;;;7.88;7.15;;;;;;;9.12;100.00;92861.16;2119090;28;20374;-73
2023/06/12 02:24:43;;;;;;;9.38;7.85;;;;;;;9.18;100.00;92858.78;2115565;27;20055;-73
2023/06/12 02:25:44;;;;;;;9.40;7.50;;;;;;;9.14;100.00;92856.19;2119657;27;20080;-73
2023/06/12 02:26:50;;;;;;;10.27;8.07;;;;;;;9.10;100.00;92857.41;2106220;28;20027;-73
2023/06/12 02:27:52;;;;;;;8.88;7.97;;;;;;;9.14;100.00;92866.09;2104494;27;20114;-73
2023/06/12 02:29:13;;;;;;;10.20;7.95;;;;;;;9.18;100.00;92870.19;2123675;27;20023;-74
2023/06/12 02:30:15;;;;;;;9.98;7.93;;;;;;;9.20;100.00;92867.09;2122445;27;20066;-73
2023/06/12 02:31:27;;;;;;;9.27;8.00;;;;;;;9.14;100.00;92866.09;2115152;28;20481;-73
2023/06/12 02:32:34;;;;;;;8.48;7.57;;;;;;;9.06;100.00;92868.91;2104545;28;20513;-72
2023/06/12 02:33:37;;;;;;;10.30;8.30;;;;;;;9.03;100.00;92868.97;2117614;28;20038;-73
2023/06/12 02:34:38;;;;;;;8.38;7.55;;;;;;;9.04;100.00;92865.13;2125266;27;20031;-73
2023/06/12 02:35:42;;;;;;;9.65;8.13;;;;;;;9.00;100.00;92870.56;2134536;27;20038;-73
2023/06/12 02:36:47;;;;;;;8.98;8.05;;;;;;;9.00;100.00;92869.78;2117759;28;20102;-73
2023/06/12 02:37:52;;;;;;;9.57;7.35;;;;;;;8.92;100.00;92863.09;2099523;28;20028;-73
2023/06/12 02:38:57;;;;;;;9.38;8.43;;;;;;;8.89;100.00;92870.00;2118214;27;20031;-73
2023/06/12 02:40:01;;;;;;;10.27;8.57;;;;;;;8.98;100.00;92872.13;2126993;27;20404;-73
2023/06/12 02:41:13;;;;;;;8.77;7.88;;;;;;;9.20;100.00;92862.53;2119680;28;20036;-73
2023/06/12 02:42:14;;;;;;;10.27;8.07;;;;;;;9.09;100.00;92864.66;2128016;27;20058;-74
2023/06/12 02:43:15;;;;;;;14.10;8.25;;;;;;;9.01;100.00;92865.97;2119671;28;20046;-73
2023/06/12 02:44:16;;;;;;;8.73;7.90;;;;;;;9.04;100.00;92865.13;2107250;28;20141;-72
2023/06/12 02:45:21;;;;;;;9.27;8.25;;;;;;;8.94;100.00;92861.50;2126712;27;20035;-73
2023/06/12 02:46:22;;;;;;;9.57;7.68;;;;;;;9.02;100.00;92865.53;2133141;27;20033;-73
2023/06/12 02:47:23;;;;;;;12.75;8.45;;;;;;;8.97;100.00;92868.69;2134840;27;20575;-73
2023/06/12 02:48:27;;;;;;;9.00;8.10;;;;;;;9.02;100.00;92862.88;2135451;27;20628;-73
2023/06/12 02:52:15;;;;;;;8.95;7.95;;;;;;;8.83;100.00;92861.72;2089682;28;20051;-74
2023/06/12 02:53:16;;;;;;;9.98;7.85;;;;;;;8.89;100.00;92861.25;2093007;28;20040;-74
2023/06/12 02:54:25;;;;;;;11.13;7.80;;;;;;;8.88;100.00;92862.41;2098363;28;20499;-73
2023/06/12 02:55:26;;;;;;;9.18;8.15;;;;;;;8.83;100.00;92861.00;2089561;28;20106;-73
2023/06/12 02:56:28;;;;;;;9.82;8.68;;;;;;;8.83;100.00;92858.31;2091367;28;20036;-73
2023/06/12 02:57:35;;;;;;;10.43;8.20;;;;;;;8.76;100.00;92866.44;2121854;27;20083;-73
2023/06/12 02:58:36;;;;;;;9.98;8.85;;;;;;;9.03;100.00;92860.97;2123331;27;20679;-72
2023/06/12 02:59:38;;;;;;;10.15;8.10;;;;;;;8.83;100.00;92866.31;2123054;27;20023;-73
2023/06/12 03:00:39;;;;;;;9.15;8.25;;;;;;;8.76;100.00;92863.78;2126027;27;20583;-73
2023/06/12 03:01:44;;;;;;;11.07;8.32;;;;;;;8.73;100.00;92865.34;2124318;27;20027;-73
2023/06/12 03:02:47;;;;;;;11.60;8.43;;;;;;;8.73;100.00;92862.66;2120431;27;20034;-72
2023/06/12 03:03:48;;;;;;;10.13;8.65;;;;;;;8.74;100.00;92866.13;2136258;27;20029;-73
2023/06/12 03:04:49;;;;;;;12.60;8.00;;;;;;;8.72;100.00;92866.50;2132011;27;20019;-73
2023/06/12 03:05:57;;;;;;;10.77;9.25;;;;;;;8.88;100.00;92863.16;2120493;27;20031;-73
2023/06/12 03:07:06;;;;;;;11.73;9.30;;;;;;;8.78;100.00;92869.44;2126215;27;20064;-73
2023/06/12 03:08:16;;;;;;;10.98;9.32;;;;;;;8.86;100.00;92862.06;2126941;27;20042;-72
2023/06/12 03:09:26;;;;;;;11.23;9.00;;;;;;;8.79;100.00;92870.97;2107841;28;20036;-73
2023/06/12 03:10:36;;;;;;;9.15;8.25;;;;;;;8.88;100.00;92865.09;2121232;27;20039;-73
2023/06/12 03:11:43;;;;;;;9.48;8.45;;;;;;;8.74;100.00;92860.78;2124102;27;20520;-72
2023/06/12 03:12:53;;;;;;;12.23;9.30;;;;;;;8.64;100.00;92862.47;2116492;28;20390;-70
2023/06/12 03:14:07;;;;;;;10.95;8.70;;;;;;;8.67;100.00;92868.91;2118281;27;20419;-73
2023/06/12 03:15:18;;;;;;;10.55;8.90;;;;;;;8.75;100.00;92870.28;2126323;27;20019;-72
2023/06/12 03:16:30;;;;;;;11.10;8.60;;;;;;;8.77;100.00;92865.28;2124653;27;20059;-72
2023/06/12 03:17:36;;;;;;;10.88;9.30;;;;;;;8.71;100.00;92869.59;2123416;27;20381;-74
2023/06/12 03:18:43;;;;;;;14.20;9.63;;;;;;;8.69;100.00;92870.00;2122499;27;20044;-70
2023/06/12 03:19:54;;;;;;;15.32;10.20;;;;;;;8.68;100.00;92870.41;2126535;27;20085;-71
2023/06/12 03:21:09;;;;;;;12.43;9.55;;;;;;;8.65;100.00;92871.97;2124712;27;20051;-72
2023/06/12 03:22:16;;;;;;;10.85;9.25;;;;;;;8.69;100.00;92863.91;2132040;27;20555;-72
2023/06/12 03:23:31;;;;;;;10.40;8.98;;;;;;;8.64;100.00;92875.78;2125920;27;20234;-71
2023/06/12 03:24:53;;;;;;;10.52;9.18;;;;;;;8.69;100.00;92874.56;2117719;27;20027;-72
2023/06/12 03:26:21;;;;;;;11.25;8.90;;;;;;;8.65;100.00;92868.53;2129528;27;20075;-71
2023/06/12 03:27:31;;;;;;;11.10;8.63;;;;;;;8.67;100.00;92871.56;2123424;27;20125;-71
2023/06/12 03:32:05;;;;;;;;;;;;;;;;;;;;;
2023/06/12 03:33:52;;;;;;;12.40;9.15;;;;;;;8.80;100.00;92867.13;2059773;28;20388;-71
2023/06/12 03:35:24;;;;;;;12.88;9.15;;;;;;;8.71;100.00;92880.25;2063226;28;20054;-75
2023/06/12 03:36:37;;;;;;;13.57;9.77;;;;;;;8.80;100.00;92875.13;2077181;28;20470;-73
2023/06/12 03:37:46;;;;;;;14.55;9.88;;;;;;;8.83;100.00;92871.66;2071051;28;20369;-71
2023/06/12 03:38:51;;;;;;;15.27;10.63;;;;;;;8.69;100.00;92871.91;2099234;27;20032;-71
2023/06/12 03:40:03;;;;;;;12.98;10.40;;;;;;;8.88;100.00;92873.84;2113404;27;20031;-71
2023/06/12 03:41:12;;;;;;;15.43;9.90;;;;;;;8.73;100.00;92875.25;2118133;27;20035;-71
2023/06/12 03:42:17;;;;;;;14.63;10.50;;;;;;;8.71;100.00;92869.59;2113098;27;20111;-72
2023/06/12 03:43:24;;;;;;;15.10;10.60;;;;;;;8.69;100.00;92872.66;2101930;28;20024;-71
2023/06/12 03:44:39;;;;;;;12.05;10.10;;;;;;;8.68;100.00;92876.47;2107448;27;20040;-71
2023/06/12 03:45:47;;;;;;;12.63;10.82;;;;;;;8.67;100.00;92872.31;2114211;27;20030;-74
2023/06/12 03:46:54;;;;;;;12.70;10.02;;;;;;;8.69;100.00;92882.56;2113184;28;20023;-71
2023/06/12 03:48:06;;;;;;;14.82;10.85;;;;;;;8.71;100.00;92877.59;2114255;27;20063;-74
2023/06/12 03:49:41;;;;;;;15.80;10.40;;;;;;;8.65;100.00;92877.31;2120007;27;20035;-71
2023/06/12 03:50:55;;;;;;;12.80;9.88;;;;;;;8.63;100.00;92876.22;2110323;28;20131;-72
2023/06/12 03:52:03;;;;;;;13.43;11.07;;;;;;;8.63;100.00;92876.22;2119233;27;20031;-71
2023/06/12 03:53:12;;;;;;;15.57;9.43;;;;;;;8.69;100.00;92870.00;2126899;27;20080;-70
2023/06/12 03:54:18;;;;;;;11.88;9.75;;;;;;;8.68;100.00;92873.06;2129259;27;20039;-73
2023/06/12 03:55:28;;;;;;;11.32;9.43;;;;;;;8.60;100.00;92875.09;2126197;27;20027;-71
2023/06/12 03:56:36;;;;;;;11.63;10.23;;;;;;;8.56;100.00;92885.84;2112325;28;20055;-71
2023/06/12 03:57:40;;;;;;;13.82;10.52;;;;;;;8.53;100.00;92878.66;2102541;28;20036;-72
2023/06/12 03:58:49;;;;;;;11.57;10.30;;;;;;;8.54;100.00;92879.41;2103351;28;20027;-73
2023/06/12 03:59:57;;;;;;;15.52;9.90;;;;;;;8.60;100.00;92891.09;2101691;28;20059;-71
2023/06/12 04:01:05;;;;;;;13.85;10.23;;;;;;;8.55;100.00;92884.31;2110911;27;20134;-72
2023/06/12 04:02:14;;;;;;;11.90;9.82;;;;;;;8.58;100.00;92885.41;2119340;27;20034;-71
2023/06/12 04:03:25;;;;;;;15.05;10.23;;;;;;;8.58;100.00;92885.41;2113919;27;20363;-73
2023/06/12 04:04:34;;;;;;;13.93;9.90;;;;;;;8.77;100.00;92884.69;2112909;27;20024;-72
2023/06/12 04:05:42;;;;;;;10.80;9.60;;;;;;;8.64;100.00;92896.34;2122004;27;20200;-70
2023/06/12 04:06:56;;;;;;;12.43;10.13;;;;;;;8.70;100.00;92894.72;2126395;27;20027;-71
2023/06/12 04:08:13;;;;;;;;;;;;;;;;;;;;;
2023/06/12 04:10:55;;;;;;;15.50;10.48;;;;;;;8.66;100.00;92902.78;2093529;28;20047;-73
2023/06/12 04:12:20;;;;;;;15.38;10.82;;;;;;;8.63;100.00;92900.19;2116539;27;20125;-72
2023/06/12 04:14:09;;;;;;;13.18;10.40;;;;;;;8.65;100.00;92903.19;2068739;28;20107;-72
2023/06/12 04:15:57;;;;;;;15.85;11.15;;;;;;;8.72;100.00;92905.72;2075528;28;20152;-72
2023/06/12 04:30:39;;;;;;;14.70;10.20;;;;;;;9.15;100.00;92896.94;2352761;22;20023;-80
2023/06/12 04:31:49;;;;;;;16.40;11.25;;;;;;;9.13;100.00;92902.69;2107170;28;20036;-81
2023/06/12 04:32:56;;;;;;;14.75;10.65;;;;;;;9.14;100.00;92900.75;2091728;28;20897;-80
2023/06/12 04:34:07;;;;;;;14.80;11.20;;;;;;;9.19;100.00;92898.34;2095023;28;20033;-80
2023/06/12 04:35:17;;;;;;;17.85;11.15;;;;;;;9.18;100.00;92896.84;2098821;28;20020;-82
2023/06/12 04:36:22;;;;;;;16.58;11.73;;;;;;;9.20;100.00;92899.09;2102816;28;20082;-82
2023/06/12 04:37:29;;;;;;;13.98;11.30;;;;;;;9.22;100.00;92899.44;2104304;28;20035;-82
2023/06/12 04:38:36;;;;;;;14.02;11.13;;;;;;;9.26;100.00;92897.44;2095089;28;20523;-81
2023/06/12 04:39:43;;;;;;;17.75;10.73;;;;;;;9.27;100.00;92893.63;2087025;28;20345;-81
2023/06/12 04:40:51;;;;;;;18.70;11.48;;;;;;;9.31;100.00;92896.97;2093946;28;20601;-79
2023/06/12 04:41:57;;;;;;;14.07;12.07;;;;;;;9.32;100.00;92899.22;2087157;28;20391;-81
2023/06/12 04:43:09;;;;;;;16.35;11.55;;;;;;;9.35;100.00;92897.66;2094521;28;20719;-82
2023/06/12 04:44:16;;;;;;;17.88;11.52;;;;;;;9.33;100.00;92891.97;2101918;28;20032;-83
2023/06/12 04:45:21;;;;;;;14.57;11.27;;;;;;;9.42;100.00;92900.16;2101696;28;20063;-81
2023/06/12 04:46:28;;;;;;;14.40;11.55;;;;;;;9.45;100.00;92898.59;2093820;28;20032;-80
2023/06/12 04:47:30;;;;;;;15.77;12.27;;;;;;;9.49;100.00;92889.34;2090338;28;20024;-80
2023/06/12 04:48:31;;;;;;;16.27;11.93;;;;;;;9.54;100.00;92899.53;2097742;28;20063;-80
2023/06/12 04:49:33;;;;;;;19.08;11.65;;;;;;;9.51;100.00;92896.94;2089210;28;20052;-82
2023/06/12 04:50:36;;;;;;;21.52;12.85;;;;;;;9.58;100.00;92896.78;2100811;28;20054;-81
2023/06/12 04:51:38;;;;;;;14.60;11.45;;;;;;;9.62;100.00;92894.06;2088342;28;20055;-80
2023/06/12 04:52:40;;;;;;;15.40;12.38;;;;;;;9.70;100.00;92893.50;2084983;28;20064;-82
2023/06/12 04:53:43;;;;;;;16.60;12.32;;;;;;;9.71;100.00;92894.22;2086399;28;20560;-81
2023/06/12 04:54:45;;;;;;;14.38;11.57;;;;;;;9.74;100.00;92896.06;2086737;28;20025;-80
2023/06/12 04:55:50;;;;;;;14.35;11.82;;;;;;;9.80;100.00;92895.16;2079843;28;20021;-82
2023/06/12 04:56:52;;;;;;;15.95;11.98;;;;;;;9.88;100.00;92886.97;2088972;28;20111;-82
2023/06/12 04:57:53;;;;;;;18.10;12.43;;;;;;;9.92;100.00;92895.66;2102573;28;20597;-81
2023/06/12 04:58:55;;;;;;;15.73;11.45;;;;;;;9.92;100.00;92892.97;2102808;28;20052;-81
2023/06/12 04:59:58;;;;;;;17.38;12.85;;;;;;;9.97;100.00;92887.91;2096715;28;20035;-80
2023/06/12 05:01:00;;;;;;;14.60;12.07;;;;;;;9.97;100.00;92885.25;2093348;28;20286;-82
2023/06/12 05:02:02;;;;;;;15.05;11.63;;;;;;;10.05;100.00;92893.81;2088782;28;20025;-83
2023/06/12 05:03:03;;;;;;;14.85;12.60;;;;;;;10.09;100.00;92891.81;2088410;28;20025;-83
2023/06/12 05:04:04;;;;;;;14.05;12.13;;;;;;;10.16;100.00;92897.00;2087957;28;20036;-80
2023/06/12 05:05:09;;;;;;;14.45;11.90;;;;;;;10.13;100.00;92895.16;2087827;28;20116;-82
2023/06/12 05:06:10;;;;;;;14.77;12.07;;;;;;;10.25;100.00;92891.09;2103027;28;20022;-81
2023/06/12 05:07:18;;;;;;;15.48;12.27;;;;;;;10.29;100.00;92894.44;2104735;28;20557;-80
2023/06/12 05:08:22;;;;;;;13.32;11.45;;;;;;;10.37;100.00;92890.44;2105294;28;20495;-80
2023/06/12 05:09:23;;;;;;;18.33;13.25;;;;;;;10.52;100.00;92893.50;2084731;28;20553;-79
2023/06/12 05:10:24;;;;;;;16.25;12.27;;;;;;;10.53;100.00;92890.38;2096312;28;20025;-81
2023/06/12 05:11:34;;;;;;;17.70;12.57;;;;;;;10.59;100.00;92888.72;2088426;28;20020;-81
2023/06/12 05:12:35;;;;;;;18.10;13.77;;;;;;;10.68;100.00;92895.41;2087259;28;20025;-81
2023/06/12 05:13:36;;;;;;;17.85;13.07;;;;;;;10.76;100.00;92888.69;2080851;28;20018;-83
2023/06/12 05:14:42;;;;;;;17.10;13.25;;;;;;;10.81;100.00;92896.19;2082137;28;20029;-83
2023/06/12 05:15:43;;;;;;;15.82;12.35;;;;;;;10.85;100.00;92888.84;2082851;28;20052;-83
2023/06/12 05:16:49;;;;;;;18.35;13.55;;;;;;;11.00;100.00;92892.63;2083101;28;20802;-80
2023/06/12 05:17:50;;;;;;;17.70;13.05;;;;;;;11.09;100.00;92884.72;2080878;28;20080;-82
2023/06/12 05:18:51;;;;;;;20.98;12.68;;;;;;;11.16;100.00;92894.50;2087947;28;20080;-80
2023/06/12 05:19:52;;;;;;;22.17;13.68;;;;;;;11.42;100.00;92887.28;2097227;28;20025;-83
2023/06/12 05:20:53;;;;;;;19.02;13.32;;;;;;;11.51;100.00;92887.38;2105458;28;20051;-80
2023/06/12 05:21:55;;;;;;;16.65;12.48;;;;;;;11.60;100.00;92884.81;2097302;28;20066;-83
2023/06/12 05:22:56;;;;;;;16.67;13.18;;;;;;;11.64;100.00;92889.34;2097335;28;20035;-80
2023/06/12 05:23:59;;;;;;;16.50;12.20;;;;;;;11.70;100.00;92884.94;2105235;28;20432;-81
2023/06/12 05:25:03;;;;;;;16.60;12.25;;;;;;;11.88;100.00;92882.50;2105434;28;20027;-82
2023/06/12 05:26:04;;;;;;;19.15;12.68;;;;;;;11.91;100.00;92889.69;2104928;28;20020;-83
2023/06/12 05:27:10;;;;;;;16.55;12.50;;;;;;;12.11;100.00;92884.06;2088696;28;20516;-83
2023/06/12 05:28:11;;;;;;;17.75;13.00;;;;;;;12.09;100.00;92883.78;2083866;28;20025;-80
2023/06/12 05:29:12;;;;;;;19.08;12.82;;;;;;;12.20;100.00;92883.41;2088938;28;20033;-81
2023/06/12 05:30:13;;;;;;;17.02;12.55;;;;;;;12.18;100.00;92897.25;2105246;28;20039;-81
2023/06/12 05:31:14;;;;;;;22.67;13.10;;;;;;;12.35;100.00;92879.13;2096783;28;20811;-82
2023/06/12 05:32:18;;;;;;;17.38;12.63;;;;;;;12.37;100.00;92879.44;2080648;28;20040;-81
2023/06/12 05:33:20;;;;;;;19.58;12.50;;;;;;;12.60;100.00;92875.63;2081251;28;20051;-82
2023/06/12 05:34:22;;;;;;;17.77;12.98;;;;;;;12.55;100.00;92876.16;2081073;28;20024;-82
2023/06/12 05:35:23;;;;;;;19.13;12.43;;;;;;;12.58;100.00;92878.72;2081099;28;20385;-81
2023/06/12 05:36:24;;;;;;;17.73;12.82;;;;;;;12.83;100.00;92877.16;2089617;28;20017;-82
2023/06/12 05:37:25;;;;;;;16.27;11.43;;;;;;;12.80;100.00;92883.38;2102607;28;20020;-83